Time;durP1;ratioP1;P1;durP2;ratioP2;P2;SDS_P1;SDS_P2;PMS_P1;PMS_P2;Temp;Humidity;BMP_temperature;BMP_pressure;BME280_temperature;BME280_humidity;BME280_pressure;Samples;Min_cycle;Max_cycle;Signal;HPM_P1;HPM_P2
2023/04/14 00:00:46;;;;;;;8.30;7.10;;;;;;;10.32;76.33;99506.47;5008050;28;20214;-62
2023/04/14 00:03:13;;;;;;;8.10;6.37;;;;;;;10.32;75.85;99507.31;5008751;28;20311;-58
2023/04/14 00:05:43;;;;;;;7.83;6.30;;;;;;;10.34;75.71;99505.56;5008988;28;20299;-57
2023/04/14 00:08:11;;;;;;;7.50;6.37;;;;;;;10.38;75.06;99503.75;5011498;28;20273;-60
2023/04/14 00:10:39;;;;;;;7.50;5.90;;;;;;;10.42;75.92;99513.16;5006088;28;20208;-58
2023/04/14 00:13:07;;;;;;;7.73;5.93;;;;;;;10.48;75.20;99501.88;5004852;28;20809;-58
2023/04/14 00:15:35;;;;;;;7.17;5.53;;;;;;;10.50;75.04;99506.13;5008720;28;20249;-58
2023/04/14 00:18:03;;;;;;;7.90;5.80;;;;;;;10.47;74.82;99501.03;5010596;28;20199;-58
2023/04/14 00:20:31;;;;;;;6.80;5.90;;;;;;;10.47;75.16;99511.31;5007796;28;20195;-57
2023/04/14 00:23:00;;;;;;;6.90;6.20;;;;;;;10.42;74.67;99502.84;5007097;28;20258;-60
2023/04/14 00:25:28;;;;;;;6.50;5.83;;;;;;;10.39;75.68;99508.91;5008643;28;20238;-57
2023/04/14 00:27:56;;;;;;;6.23;5.60;;;;;;;10.34;75.75;99505.56;5010522;28;20211;-57
2023/04/14 00:30:24;;;;;;;6.90;5.80;;;;;;;10.33;74.92;99498.72;5008119;28;20207;-57
2023/04/14 00:32:52;;;;;;;8.17;5.77;;;;;;;10.31;75.19;99499.59;5009425;28;20204;-58
2023/04/14 00:35:20;;;;;;;6.40;4.97;;;;;;;10.29;75.27;99493.66;5009068;28;20682;-56
2023/04/14 00:37:48;;;;;;;6.27;5.67;;;;;;;10.26;75.40;99491.97;5009598;28;20196;-56
2023/04/14 00:40:17;;;;;;;6.07;5.40;;;;;;;10.25;76.26;99494.56;5006414;28;20695;-57
2023/04/14 00:42:46;;;;;;;6.00;5.40;;;;;;;10.23;76.28;99496.31;5005643;28;20200;-57
2023/04/14 00:45:15;;;;;;;6.63;5.23;;;;;;;10.19;75.59;99489.53;5011182;28;20207;-57
2023/04/14 00:47:45;;;;;;;6.03;5.27;;;;;;;10.19;76.02;99494.66;5007064;28;20899;-56
2023/04/14 00:50:15;;;;;;;6.47;5.77;;;;;;;10.15;76.03;99489.56;5008137;28;20228;-61
2023/04/14 00:52:44;;;;;;;7.67;5.93;;;;;;;10.11;75.69;99487.94;5007741;28;20694;-58
2023/04/14 00:55:15;;;;;;;6.70;6.10;;;;;;;10.09;76.61;99488.88;5010536;28;20218;-60
2023/04/14 00:57:45;;;;;;;8.27;6.50;;;;;;;10.02;76.34;99482.97;5009043;28;20195;-58
2023/04/14 01:00:14;;;;;;;6.83;5.67;;;;;;;9.99;77.13;99484.75;5004849;28;20642;-57
2023/04/14 01:02:42;;;;;;;6.53;5.37;;;;;;;9.92;76.96;99478.88;5009199;28;20226;-59
2023/04/14 01:05:11;;;;;;;6.80;5.67;;;;;;;9.93;76.65;99483.13;5008644;28;20246;-57
2023/04/14 01:07:40;;;;;;;5.90;5.30;;;;;;;9.89;77.71;99489.22;5006877;28;20269;-58
2023/04/14 01:10:08;;;;;;;8.53;6.10;;;;;;;9.86;76.94;99491.84;5001758;28;20218;-57
2023/04/14 01:13:02;;;;;;;7.30;6.43;;;;;;;9.85;77.45;99491.00;5008706;28;20210;-60
2023/04/14 01:15:35;;;;;;;8.07;6.50;;;;;;;9.85;77.45;99492.72;5009458;28;20254;-57
2023/04/14 01:18:10;;;;;;;7.37;6.60;;;;;;;9.83;77.22;99490.19;5008727;28;20582;-57
2023/04/14 01:20:42;;;;;;;7.73;5.57;;;;;;;9.86;77.57;99496.97;5006916;28;20202;-59
2023/04/14 01:23:14;;;;;;;6.80;6.10;;;;;;;9.84;77.31;99493.59;5004865;28;20888;-56
2023/04/14 01:26:16;;;;;;;9.43;6.40;;;;;;;9.84;77.19;99499.59;5010908;28;20257;-58
2023/04/14 01:29:24;;;;;;;6.70;5.50;;;;;;;9.87;77.52;99506.41;5008819;28;20227;-58
2023/04/14 01:32:01;;;;;;;6.43;5.60;;;;;;;9.87;77.45;99514.13;4999248;28;20643;-59
2023/04/14 01:34:33;;;;;;;5.80;5.20;;;;;;;9.84;77.71;99496.19;5005293;28;20211;-58
2023/04/14 01:37:06;;;;;;;6.83;5.77;;;;;;;9.86;77.77;99507.28;4998525;28;20200;-57
2023/04/14 01:39:38;;;;;;;6.57;5.87;;;;;;;9.85;77.77;99501.28;5006703;28;20204;-57
2023/04/14 01:42:11;;;;;;;6.33;5.73;;;;;;;9.86;77.18;99496.97;5008308;28;20586;-57
2023/04/14 01:44:40;;;;;;;8.07;6.10;;;;;;;9.86;76.81;99491.84;5008253;28;20203;-57
2023/04/14 01:47:14;;;;;;;6.57;5.93;;;;;;;9.86;77.57;99502.13;5008288;28;20235;-57
2023/04/14 01:49:44;;;;;;;6.70;5.50;;;;;;;9.84;77.45;99498.75;5004213;28;20219;-59
2023/04/14 01:52:15;;;;;;;6.43;5.70;;;;;;;9.81;77.53;99501.38;5005679;28;20565;-56
2023/04/14 01:54:45;;;;;;;6.40;5.40;;;;;;;9.78;77.23;99498.84;5010148;28;20243;-56
2023/04/14 01:57:18;;;;;;;5.77;5.27;;;;;;;9.75;77.43;99493.75;5008498;28;20203;-59
2023/04/14 01:59:48;;;;;;;6.73;6.03;;;;;;;9.72;77.64;99499.81;5006505;28;20200;-57
2023/04/14 02:02:18;;;;;;;7.03;5.90;;;;;;;9.70;77.39;99498.97;5012017;28;20211;-60
2023/04/14 02:04:47;;;;;;;6.03;5.43;;;;;;;9.65;77.95;99499.06;5012921;28;20203;-63
2023/04/14 02:07:19;;;;;;;8.00;6.33;;;;;;;9.58;78.43;99500.03;5012296;28;20222;-61
2023/04/14 02:09:48;;;;;;;6.77;6.03;;;;;;;9.55;78.23;99506.94;5009980;28;20199;-58
2023/04/14 02:12:18;;;;;;;8.10;6.53;;;;;;;9.50;78.06;99503.56;5007625;28;20219;-57
2023/04/14 02:14:48;;;;;;;8.97;7.40;;;;;;;9.44;78.27;99501.97;5012029;28;20664;-59
2023/04/14 02:17:19;;;;;;;9.23;7.97;;;;;;;9.36;79.24;99506.38;5008419;28;20207;-56
2023/04/14 02:19:48;;;;;;;10.43;8.63;;;;;;;9.28;78.78;99495.34;5010480;28;20638;-58
2023/04/14 02:22:16;;;;;;;10.10;7.77;;;;;;;9.26;79.06;99502.25;5012266;28;20239;-59
2023/04/14 02:24:44;;;;;;;9.93;8.67;;;;;;;9.19;78.92;99504.06;5011579;28;20253;-57
2023/04/14 02:27:17;;;;;;;10.23;8.77;;;;;;;9.13;78.99;99505.00;5012198;28;20219;-58
2023/04/14 02:29:52;;;;;;;11.40;9.00;;;;;;;9.04;79.12;99501.72;5010622;28;20249;-57
2023/04/14 02:32:23;;;;;;;13.93;9.47;;;;;;;8.98;79.17;99515.47;5010424;28;20623;-55
2023/04/14 02:34:55;;;;;;;10.07;9.07;;;;;;;8.91;79.08;99509.59;5007916;28;20674;-55
2023/04/14 02:37:27;;;;;;;11.93;9.17;;;;;;;8.82;79.42;99508.84;5011686;28;20234;-56
2023/04/14 02:40:00;;;;;;;10.97;8.93;;;;;;;8.74;80.85;99506.38;5007717;28;20211;-56
2023/04/14 02:42:30;;;;;;;11.67;8.70;;;;;;;8.67;80.19;99507.34;5012222;28;20215;-58
2023/04/14 02:45:02;;;;;;;13.23;9.67;;;;;;;8.64;80.91;99510.78;5011393;28;20203;-56
2023/04/14 02:47:37;;;;;;;13.57;9.63;;;;;;;8.60;80.64;99509.13;5011325;28;21010;-58
2023/04/14 02:50:10;;;;;;;12.00;9.10;;;;;;;8.62;80.92;99511.69;5006171;28;20234;-57
2023/04/14 02:52:40;;;;;;;12.67;10.50;;;;;;;8.57;81.01;99504.03;5006742;28;20294;-58
2023/04/14 02:55:10;;;;;;;12.23;10.47;;;;;;;8.50;81.37;99506.69;5008438;28;20639;-57
2023/04/14 02:57:40;;;;;;;12.37;10.73;;;;;;;8.46;81.65;99511.00;5006418;28;20223;-58
2023/04/14 03:00:09;;;;;;;15.97;11.47;;;;;;;8.43;81.47;99511.91;5009734;28;20203;-58
2023/04/14 03:02:39;;;;;;;12.13;10.93;;;;;;;8.41;81.99;99512.78;5006294;28;20243;-58
2023/04/14 03:05:08;;;;;;;12.47;10.20;;;;;;;8.40;82.64;99516.22;5005637;28;20213;-59
2023/04/14 03:07:37;;;;;;;11.40;10.13;;;;;;;8.38;82.17;99517.94;5007132;28;20247;-57
2023/04/14 03:10:08;;;;;;;12.53;10.23;;;;;;;8.35;82.17;99517.94;5004665;28;20230;-58
2023/04/14 03:12:37;;;;;;;12.23;10.23;;;;;;;8.35;82.19;99515.38;5006369;28;20238;-63
2023/04/14 03:15:07;;;;;;;12.23;10.90;;;;;;;8.32;81.92;99517.97;5006841;28;20274;-58
2023/04/14 03:17:36;;;;;;;11.93;10.57;;;;;;;8.34;82.91;99522.22;5006387;28;20647;-68
2023/04/14 03:20:08;;;;;;;12.80;10.43;;;;;;;8.33;82.64;99523.09;5005685;28;20674;-61
2023/04/14 03:22:39;;;;;;;12.90;10.27;;;;;;;8.27;82.76;99524.88;5005547;28;20321;-57
2023/04/14 03:25:11;;;;;;;13.30;11.33;;;;;;;8.23;81.83;99522.34;5003839;28;20218;-57
2023/04/14 03:27:40;;;;;;;12.17;9.50;;;;;;;8.21;82.08;99525.78;5004788;28;20207;-58
2023/04/14 03:30:13;;;;;;;13.57;10.40;;;;;;;8.21;82.70;99534.34;5005280;28;20203;-57
2023/04/14 03:32:43;;;;;;;11.70;9.73;;;;;;;8.19;82.28;99533.50;5009987;28;20195;-59
2023/04/14 03:35:14;;;;;;;11.73;10.43;;;;;;;8.17;82.83;99531.81;5009718;28;20199;-58
2023/04/14 03:37:44;;;;;;;13.57;10.67;;;;;;;8.16;82.60;99530.97;5010289;28;20203;-58
2023/04/14 03:40:15;;;;;;;12.13;10.40;;;;;;;8.14;83.18;99537.00;5007094;28;20219;-57
2023/04/14 03:42:45;;;;;;;11.47;10.17;;;;;;;8.10;83.44;99531.06;5008676;28;20218;-58
2023/04/14 03:45:13;;;;;;;12.23;10.93;;;;;;;8.11;83.77;99529.34;5010702;28;20207;-59
2023/04/14 03:47:40;;;;;;;11.63;9.13;;;;;;;8.13;82.86;99532.72;5010576;28;20207;-60
2023/04/14 03:50:14;;;;;;;11.00;9.67;;;;;;;8.13;82.78;99538.69;5004391;28;20204;-56
2023/04/14 03:52:45;;;;;;;11.60;9.87;;;;;;;8.09;83.14;99539.59;5006209;28;20207;-58
2023/04/14 03:55:17;;;;;;;12.97;10.60;;;;;;;8.05;82.85;99543.06;5007617;28;20211;-57
2023/04/14 03:57:47;;;;;;;12.77;10.70;;;;;;;8.05;82.96;99539.66;5006309;28;20231;-58
2023/04/14 04:00:16;;;;;;;15.17;10.90;;;;;;;8.05;82.75;99540.50;5007582;28;20199;-69
2023/04/14 04:02:45;;;;;;;11.60;10.13;;;;;;;8.06;83.09;99551.59;5005144;28;20204;-60
2023/04/14 04:05:15;;;;;;;15.63;11.83;;;;;;;8.11;82.82;99549.84;5004918;28;20207;-57
2023/04/14 04:07:45;;;;;;;15.70;12.53;;;;;;;8.10;83.18;99543.88;5008403;28;20622;-65
2023/04/14 04:10:15;;;;;;;15.43;12.73;;;;;;;8.09;82.53;99542.16;5004801;28;20551;-62
2023/04/14 04:12:44;;;;;;;20.07;13.27;;;;;;;8.10;83.16;99538.75;5007364;28;20736;-60
2023/04/14 04:15:12;;;;;;;20.03;14.90;;;;;;;8.14;82.95;99539.56;5005983;28;20641;-58
2023/04/14 04:17:41;;;;;;;18.53;13.90;;;;;;;8.18;83.26;99541.22;5010561;28;20254;-66
2023/04/14 04:20:14;;;;;;;19.00;14.17;;;;;;;8.20;82.75;99548.03;5008385;28;20681;-57
2023/04/14 04:22:45;;;;;;;19.87;15.17;;;;;;;8.12;82.85;99549.84;5005206;28;20243;-58
2023/04/14 04:25:14;;;;;;;19.37;14.30;;;;;;;8.08;83.28;99553.28;5010520;28;20226;-60
2023/04/14 04:27:42;;;;;;;22.90;14.60;;;;;;;8.09;83.26;99552.41;5009484;28;20202;-59
2023/04/14 04:30:13;;;;;;;21.80;14.80;;;;;;;8.08;82.99;99543.03;5006313;28;20614;-60
2023/04/14 04:32:41;;;;;;;20.63;14.50;;;;;;;8.11;83.48;99558.41;5004366;28;20575;-59
2023/04/14 04:35:10;;;;;;;20.17;14.43;;;;;;;8.15;83.22;99561.78;5007227;28;20207;-57
2023/04/14 04:37:39;;;;;;;23.77;15.60;;;;;;;8.14;82.31;99560.94;5006784;28;20556;-58
2023/04/14 04:40:10;;;;;;;24.30;14.87;;;;;;;8.15;82.76;99560.06;5007672;28;20223;-59
2023/04/14 04:42:41;;;;;;;25.10;15.63;;;;;;;8.14;82.29;99560.09;5006936;28;20204;-62
2023/04/14 04:45:10;;;;;;;24.90;15.30;;;;;;;8.17;82.75;99565.19;5008310;28;20207;-56
2023/04/14 04:47:38;;;;;;;21.83;14.37;;;;;;;8.18;83.18;99572.88;4995665;28;20253;-58
2023/04/14 04:50:07;;;;;;;22.87;13.53;;;;;;;8.12;82.81;99572.94;5004067;28;20750;-58
2023/04/14 04:52:34;;;;;;;20.43;13.63;;;;;;;8.06;83.04;99578.09;5008296;28;20234;-58
2023/04/14 04:55:02;;;;;;;22.23;13.50;;;;;;;8.03;83.17;99570.47;5000036;28;20257;-73
2023/04/14 04:57:32;;;;;;;22.23;13.57;;;;;;;8.04;84.18;99576.44;5007592;28;20663;-65
2023/04/14 05:00:00;;;;;;;22.80;13.97;;;;;;;7.98;83.83;99570.47;5008437;28;20557;-58
2023/04/14 05:02:27;;;;;;;25.40;13.47;;;;;;;8.02;84.36;99576.44;5009255;28;20207;-59
2023/04/14 05:04:56;;;;;;;27.30;14.80;;;;;;;8.03;84.27;99567.91;5008897;28;20302;-58
2023/04/14 05:07:24;;;;;;;26.57;13.87;;;;;;;8.03;84.90;99567.00;5008169;28;20298;-57
2023/04/14 05:09:52;;;;;;;24.43;14.83;;;;;;;8.05;85.12;99570.44;5006884;28;20587;-59
2023/04/14 05:12:20;;;;;;;25.30;15.60;;;;;;;8.04;84.77;99569.59;5005391;28;20721;-58
2023/04/14 05:14:49;;;;;;;23.73;15.37;;;;;;;8.09;85.21;99567.81;5002616;28;20211;-58
2023/04/14 05:17:17;;;;;;;21.77;13.97;;;;;;;8.13;84.85;99573.78;5009339;28;20204;-58
2023/04/14 05:19:45;;;;;;;27.03;14.87;;;;;;;8.15;84.99;99567.78;5008040;28;20242;-58
2023/04/14 05:22:12;;;;;;;22.30;14.53;;;;;;;8.19;84.40;99572.00;5006531;28;20281;-59
2023/04/14 05:24:40;;;;;;;25.10;15.53;;;;;;;8.28;84.68;99572.78;5005306;28;20659;-59
2023/04/14 05:27:08;;;;;;;22.77;14.33;;;;;;;8.28;84.87;99567.63;5010413;28;20625;-63
2023/04/14 05:29:41;;;;;;;24.13;15.13;;;;;;;8.30;85.22;99577.03;5005609;28;20239;-59
2023/04/14 05:32:12;;;;;;;20.93;14.93;;;;;;;8.34;85.11;99575.28;5005242;28;20207;-61
2023/04/14 05:34:40;;;;;;;20.00;14.77;;;;;;;8.38;83.97;99574.41;5006320;28;20585;-62
2023/04/14 05:37:08;;;;;;;20.67;15.10;;;;;;;8.41;84.41;99580.38;5005555;28;20199;-59
2023/04/14 05:39:36;;;;;;;23.50;16.70;;;;;;;8.43;84.87;99578.66;5009644;28;20654;-60
2023/04/14 05:42:04;;;;;;;20.37;15.63;;;;;;;8.45;84.68;99573.50;5004457;28;20211;-60
2023/04/14 05:44:32;;;;;;;21.43;15.53;;;;;;;8.53;84.34;99581.97;5010311;28;20285;-59
2023/04/14 05:47:00;;;;;;;20.87;15.47;;;;;;;8.63;83.94;99577.59;5011528;28;20206;-61
2023/04/14 05:49:29;;;;;;;19.47;15.00;;;;;;;8.76;84.37;99573.13;5010544;28;20333;-60
2023/04/14 05:51:58;;;;;;;21.13;16.53;;;;;;;8.83;82.90;99580.75;5002331;28;20253;-62
2023/04/14 05:54:25;;;;;;;20.77;16.07;;;;;;;8.93;83.60;99576.38;5013337;28;20254;-64
2023/04/14 05:56:53;;;;;;;18.87;14.73;;;;;;;9.03;82.65;99575.38;5006024;28;20280;-59
2023/04/14 05:59:21;;;;;;;21.20;15.37;;;;;;;9.09;81.57;99575.28;5007144;28;20258;-59
2023/04/14 06:01:49;;;;;;;19.03;14.93;;;;;;;9.21;81.75;99573.47;5004844;28;20220;-62
2023/04/14 06:04:17;;;;;;;19.03;14.90;;;;;;;9.26;82.18;99569.94;5004409;28;20277;-66
2023/04/14 06:06:47;;;;;;;21.00;14.47;;;;;;;9.46;81.24;99569.63;5012625;28;20714;-60
2023/04/14 06:09:15;;;;;;;17.77;14.90;;;;;;;9.58;81.19;99582.34;5012070;28;20325;-60
2023/04/14 06:11:43;;;;;;;18.43;14.10;;;;;;;9.72;80.12;99577.00;5013595;28;20212;-59
2023/04/14 06:14:11;;;;;;;18.33;14.37;;;;;;;9.83;79.74;99584.50;5013787;28;20203;-60
2023/04/14 06:16:38;;;;;;;15.73;13.37;;;;;;;9.82;78.96;99582.81;5013808;28;20666;-61
2023/04/14 06:19:06;;;;;;;17.03;14.10;;;;;;;9.89;78.90;99584.41;5010953;28;20569;-59
2023/04/14 06:21:34;;;;;;;15.57;12.33;;;;;;;9.95;77.91;99581.75;5011087;28;20254;-59
2023/04/14 06:24:04;;;;;;;17.33;14.27;;;;;;;9.98;79.32;99584.28;5012209;28;20210;-60
2023/04/14 06:26:32;;;;;;;15.37;13.17;;;;;;;10.01;79.22;99576.50;5006455;28;20262;-60
2023/04/14 06:29:00;;;;;;;14.87;13.10;;;;;;;10.11;78.99;99585.75;5011801;28;20250;-60
2023/04/14 06:31:28;;;;;;;16.20;12.90;;;;;;;10.21;78.67;99585.63;5013050;28;20658;-62
2023/04/14 06:33:56;;;;;;;17.50;13.07;;;;;;;10.45;78.13;99579.19;5012991;28;20214;-60
2023/04/14 06:36:24;;;;;;;15.60;12.47;;;;;;;10.51;77.19;99577.34;5002813;28;20208;-60
2023/04/14 06:38:52;;;;;;;18.73;11.87;;;;;;;10.77;76.39;99581.16;5006608;28;20265;-59
2023/04/14 06:41:21;;;;;;;12.50;10.80;;;;;;;11.00;75.69;99584.13;5010205;28;20273;-59
2023/04/14 06:43:49;;;;;;;12.00;10.80;;;;;;;11.16;75.07;99592.41;5011788;28;20631;-58
2023/04/14 06:46:18;;;;;;;15.17;11.63;;;;;;;11.58;74.59;99584.56;5004417;28;20312;-59
2023/04/14 06:48:46;;;;;;;13.50;10.20;;;;;;;12.05;71.18;99582.63;5005991;28;20325;-60
2023/04/14 06:51:13;;;;;;;11.43;10.27;;;;;;;12.38;68.78;99580.91;5001210;28;20215;-60
2023/04/14 06:53:41;;;;;;;11.40;10.27;;;;;;;12.25;69.50;99582.13;5008454;28;20258;-62
2023/04/14 06:56:09;;;;;;;11.83;10.57;;;;;;;12.37;69.61;99578.34;5001079;28;20688;-61
2023/04/14 06:58:39;;;;;;;12.80;10.07;;;;;;;14.04;68.02;99565.66;5004073;28;20206;-64
2023/04/14 07:01:07;;;;;;;9.97;8.90;;;;;;;15.40;60.92;99558.16;5001565;28;20276;-59
2023/04/14 07:03:35;;;;;;;8.93;8.03;;;;;;;16.29;58.31;99564.94;5004208;28;20320;-58
2023/04/14 07:06:04;;;;;;;10.63;8.23;;;;;;;16.23;56.24;99560.00;5003213;28;20203;-64
2023/04/14 07:08:33;;;;;;;8.17;7.43;;;;;;;16.04;56.90;99568.56;5005396;28;20203;-66
2023/04/14 07:11:02;;;;;;;9.67;7.90;;;;;;;16.49;55.28;99562.31;5002104;28;20277;-63
2023/04/14 07:13:30;;;;;;;9.07;8.17;;;;;;;16.81;54.64;99562.69;5001751;28;20669;-62
2023/04/14 07:16:00;;;;;;;8.87;6.87;;;;;;;18.16;50.71;99546.72;5000686;28;20211;-60
2023/04/14 07:18:29;;;;;;;7.55;6.63;;;;;;;18.59;49.35;99554.91;5002364;28;20203;-62
2023/04/14 07:20:57;;;;;;;8.88;6.60;;;;;;;19.30;47.25;99555.47;5001451;28;20235;-60
2023/04/14 07:23:25;;;;;;;7.22;6.53;;;;;;;20.14;45.54;99549.84;5004043;28;20761;-60
2023/04/14 07:25:54;;;;;;;7.05;6.38;;;;;;;21.34;42.07;99553.00;5001321;28;20203;-61
2023/04/14 07:28:23;;;;;;;7.10;6.10;;;;;;;22.73;39.79;99543.72;5002633;28;20261;-61
2023/04/14 07:30:51;;;;;;;7.63;6.32;;;;;;;24.35;36.64;99549.44;5007521;28;20682;-60
2023/04/14 07:33:22;;;;;;;7.63;6.03;;;;;;;25.69;33.65;99542.38;5005164;28;20214;-61
2023/04/14 07:35:50;;;;;;;7.45;5.90;;;;;;;27.01;31.54;99547.06;4998267;28;20208;-60
2023/04/14 07:38:31;;;;;;;7.50;5.43;;;;;;;27.42;29.43;99540.75;5007436;28;20211;-60
2023/04/14 07:41:00;;;;;;;5.97;5.40;;;;;;;27.41;29.06;99539.91;5012042;28;20203;-62
2023/04/14 07:43:33;;;;;;;6.03;5.50;;;;;;;27.66;29.30;99543.00;5012621;28;20207;-61
2023/04/14 07:46:03;;;;;;;6.10;4.90;;;;;;;27.80;28.43;99547.06;5007268;28;20210;-61
2023/04/14 07:48:34;;;;;;;5.95;4.78;;;;;;;27.35;29.39;99556.34;5003692;28;20207;-60
2023/04/14 07:51:03;;;;;;;7.47;4.80;;;;;;;27.82;28.61;99553.06;5007506;28;20242;-61
2023/04/14 07:53:31;;;;;;;5.35;4.85;;;;;;;28.49;27.71;99548.63;5006414;28;20630;-62
2023/04/14 07:55:59;;;;;;;4.47;4.10;;;;;;;28.88;27.31;99551.97;5008410;28;20235;-61
2023/04/14 07:58:27;;;;;;;4.80;4.43;;;;;;;29.64;26.20;99538.38;5012146;28;20203;-60
2023/04/14 08:00:56;;;;;;;4.90;4.50;;;;;;;30.22;25.36;99543.19;5006035;28;20203;-62
2023/04/14 08:03:24;;;;;;;7.53;4.55;;;;;;;30.99;24.52;99540.59;5010271;28;20282;-65
2023/04/14 08:05:54;;;;;;;6.13;4.60;;;;;;;31.46;24.03;99535.59;5010498;28;20651;-60
2023/04/14 08:08:22;;;;;;;4.30;4.00;;;;;;;31.29;23.95;99545.31;5007288;28;20581;-61
2023/04/14 08:10:50;;;;;;;4.88;3.92;;;;;;;30.25;23.96;99550.00;5001590;28;20277;-60
2023/04/14 08:13:18;;;;;;;5.07;4.50;;;;;;;29.50;25.11;99544.22;5004372;28;20681;-60
2023/04/14 08:15:46;;;;;;;11.52;4.53;;;;;;;28.89;24.94;99554.47;5006418;28;20207;-62
2023/04/14 08:18:14;;;;;;;4.45;4.05;;;;;;;27.20;28.17;99552.41;5010035;28;20286;-62
2023/04/14 08:20:42;;;;;;;4.90;4.47;;;;;;;27.02;28.93;99554.00;5008868;28;20559;-63
2023/04/14 08:23:11;;;;;;;5.65;3.92;;;;;;;27.52;28.88;99540.78;5003665;28;20242;-62
2023/04/14 08:25:39;;;;;;;4.75;3.90;;;;;;;27.34;28.71;99544.09;5006251;28;20214;-63
2023/04/14 08:28:08;;;;;;;4.72;4.05;;;;;;;26.95;29.43;99546.63;5006935;28;20207;-62
2023/04/14 08:30:36;;;;;;;4.63;4.10;;;;;;;27.19;28.37;99541.00;5005690;28;20628;-62
2023/04/14 08:33:04;;;;;;;4.47;4.07;;;;;;;27.79;28.01;99554.16;5007295;28;20207;-62
2023/04/14 08:35:33;;;;;;;3.90;3.60;;;;;;;26.93;28.84;99551.19;5009592;28;20207;-62
2023/04/14 08:38:07;;;;;;;4.50;3.88;;;;;;;26.40;29.74;99547.88;5005949;28;20227;-61
2023/04/14 08:40:38;;;;;;;5.07;4.47;;;;;;;24.70;32.23;99548.53;5008600;28;20207;-60
2023/04/14 08:43:06;;;;;;;4.63;4.05;;;;;;;23.18;35.36;99556.38;5009570;28;20729;-63
2023/04/14 08:45:35;;;;;;;5.30;4.80;;;;;;;22.27;36.81;99559.16;5010024;28;20210;-62
2023/04/14 08:48:04;;;;;;;5.55;4.82;;;;;;;20.98;39.30;99565.69;4999848;28;20195;-63
2023/04/14 08:50:36;;;;;;;5.25;4.75;;;;;;;19.72;42.37;99569.69;5001971;28;20207;-63
2023/04/14 08:53:08;;;;;;;5.20;4.80;;;;;;;19.19;43.83;99565.66;5009820;28;20207;-64
2023/04/14 08:55:40;;;;;;;4.90;4.50;;;;;;;18.93;44.86;99568.84;5004972;28;20257;-63
2023/04/14 08:58:10;;;;;;;5.53;4.35;;;;;;;18.75;45.77;99555.84;5009347;28;20637;-62
2023/04/14 09:00:38;;;;;;;5.25;4.85;;;;;;;20.31;42.80;99563.69;5007092;28;20608;-66
2023/04/14 09:03:07;;;;;;;6.22;4.15;;;;;;;21.01;40.31;99551.56;5009925;28;20206;-62
2023/04/14 09:05:36;;;;;;;6.40;4.43;;;;;;;21.59;39.49;99558.38;5009828;28;20207;-63
2023/04/14 09:08:04;;;;;;;4.50;4.10;;;;;;;21.73;39.24;99554.00;5004433;28;20244;-68
2023/04/14 09:10:34;;;;;;;4.75;3.97;;;;;;;22.42;38.33;99548.47;5010442;28;20207;-62
2023/04/14 09:13:05;;;;;;;4.20;3.80;;;;;;;23.80;35.31;99545.72;5011772;28;20203;-63
2023/04/14 09:15:33;;;;;;;4.72;4.00;;;;;;;23.83;34.40;99548.13;5007872;28;20211;-61
2023/04/14 09:18:01;;;;;;;5.22;3.88;;;;;;;23.64;33.86;99543.38;5005888;28;20331;-62
2023/04/14 09:20:30;;;;;;;5.43;4.20;;;;;;;22.23;36.78;99541.94;5011843;28;20203;-62
2023/04/14 09:23:04;;;;;;;5.18;4.10;;;;;;;20.53;40.26;99556.25;5010188;28;20231;-63
2023/04/14 09:25:32;;;;;;;5.32;4.30;;;;;;;19.48;43.08;99552.75;5009736;28;20658;-64
2023/04/14 09:28:00;;;;;;;4.85;4.45;;;;;;;18.77;44.66;99545.31;5011614;28;20195;-68
2023/04/14 09:30:31;;;;;;;5.00;4.30;;;;;;;18.20;46.48;99558.66;5012949;28;20207;-62
2023/04/14 09:32:59;;;;;;;7.22;4.20;;;;;;;18.36;46.40;99550.88;5006823;28;20230;-63
2023/04/14 09:35:43;;;;;;;6.22;4.53;;;;;;;18.55;47.01;99553.38;5006507;28;20215;-62
2023/04/14 09:38:11;;;;;;;8.05;4.32;;;;;;;18.96;44.80;99545.16;5011785;28;20199;-63
2023/04/14 09:40:42;;;;;;;4.88;4.47;;;;;;;18.53;45.81;99550.03;5012553;28;20320;-62
2023/04/14 09:43:24;;;;;;;6.47;4.35;;;;;;;18.06;47.34;99551.53;5009010;28;20200;-62
2023/04/14 09:45:54;;;;;;;4.53;4.13;;;;;;;17.50;48.28;99554.28;5009017;28;20661;-62
2023/04/14 09:48:23;;;;;;;4.30;3.90;;;;;;;17.14;48.89;99560.31;4998846;28;20204;-62
2023/04/14 09:50:59;;;;;;;4.70;3.90;;;;;;;17.25;49.93;99552.84;5011167;28;20249;-63
2023/04/14 09:53:30;;;;;;;5.90;4.55;;;;;;;18.50;47.34;99550.19;5011900;28;20239;-62
2023/04/14 09:56:01;;;;;;;4.80;4.15;;;;;;;19.67;45.32;99545.59;5012639;28;20207;-62
2023/04/14 09:58:31;;;;;;;4.35;3.95;;;;;;;21.05;41.02;99537.31;5002204;28;20209;-63
2023/04/14 10:01:03;;;;;;;8.82;4.35;;;;;;;20.79;39.39;99538.94;5013411;28;20301;-62
2023/04/14 10:03:36;;;;;;;5.57;4.63;;;;;;;20.04;41.66;99533.00;5013777;28;20242;-67
2023/04/14 10:06:09;;;;;;;5.32;4.78;;;;;;;20.05;42.62;99537.28;5005443;28;20269;-61
2023/04/14 10:08:39;;;;;;;5.55;4.75;;;;;;;20.26;41.86;99538.63;5007102;28;20207;-63
2023/04/14 10:11:18;;;;;;;6.35;4.70;;;;;;;20.34;41.18;99529.50;5013344;28;20203;-62
2023/04/14 10:13:47;;;;;;;4.70;4.20;;;;;;;19.75;42.54;99526.84;5014054;28;20214;-63
2023/04/14 10:16:17;;;;;;;4.53;4.13;;;;;;;19.75;43.25;99527.69;5012185;28;20219;-62
2023/04/14 10:18:46;;;;;;;6.45;4.45;;;;;;;20.14;43.06;99528.91;5012578;28;20203;-64
2023/04/14 10:21:15;;;;;;;5.50;4.07;;;;;;;20.58;41.20;99524.56;5008722;28;20219;-65
2023/04/14 10:23:44;;;;;;;4.53;4.00;;;;;;;20.65;39.91;99526.69;5012507;28;20549;-62
2023/04/14 10:26:13;;;;;;;4.68;4.28;;;;;;;19.79;41.21;99528.34;5010781;28;20207;-61
2023/04/14 10:28:43;;;;;;;5.22;4.72;;;;;;;19.31;43.50;99528.41;5010444;28;20203;-61
2023/04/14 10:31:16;;;;;;;5.47;4.70;;;;;;;19.56;42.90;99532.25;5010466;28;20211;-65
2023/04/14 10:33:45;;;;;;;4.10;3.78;;;;;;;19.03;43.58;99528.22;5008505;28;20210;-63
2023/04/14 10:36:23;;;;;;;4.43;4.03;;;;;;;18.30;45.72;99523.38;5009210;28;20199;-62
2023/04/14 10:38:59;;;;;;;6.15;4.43;;;;;;;17.89;47.49;99535.03;5007247;28;20207;-61
2023/04/14 10:41:36;;;;;;;5.90;4.68;;;;;;;17.72;48.23;99535.88;5011182;28;20199;-62
2023/04/14 10:44:04;;;;;;;5.10;4.57;;;;;;;18.04;47.33;99535.13;5011885;28;20748;-61
2023/04/14 10:46:43;;;;;;;4.43;4.03;;;;;;;18.68;46.45;99525.72;5011541;28;20663;-62
2023/04/14 10:49:13;;;;;;;5.75;5.00;;;;;;;19.14;44.43;99530.25;5006563;28;20204;-62
2023/04/14 10:51:42;;;;;;;5.10;4.65;;;;;;;19.55;43.96;99523.56;5010425;28;20606;-60
2023/04/14 10:54:16;;;;;;;5.78;4.72;;;;;;;19.84;42.79;99523.69;5012380;28;20203;-65
2023/04/14 10:57:08;;;;;;;4.75;4.30;;;;;;;20.17;41.73;99522.63;5010025;28;20208;-62
2023/04/14 10:59:36;;;;;;;5.50;4.25;;;;;;;20.16;42.13;99526.19;5005381;28;20219;-63
2023/04/14 11:02:04;;;;;;;4.13;3.83;;;;;;;19.73;42.98;99511.22;5009952;28;20328;-62
2023/04/14 11:04:33;;;;;;;6.97;4.90;;;;;;;19.44;43.65;99525.97;5009248;28;20234;-63
2023/04/14 11:07:09;;;;;;;5.28;4.57;;;;;;;18.90;43.16;99535.91;5009383;28;20245;-63
2023/04/14 11:09:37;;;;;;;5.65;4.80;;;;;;;18.36;44.84;99522.19;5001296;28;20199;-63
2023/04/14 11:12:23;;;;;;;9.02;4.15;;;;;;;18.30;45.42;99518.16;5008384;28;20215;-63
2023/04/14 11:14:56;;;;;;;4.82;4.43;;;;;;;18.04;45.93;99513.41;5009548;28;20200;-63
2023/04/14 11:17:23;;;;;;;4.97;4.53;;;;;;;17.81;46.76;99504.16;5007575;28;20261;-63
2023/04/14 11:19:55;;;;;;;4.22;3.83;;;;;;;17.75;46.80;99507.91;5007429;28;20721;-62
2023/04/14 11:22:40;;;;;;;5.13;4.63;;;;;;;17.34;48.71;99509.88;5006682;28;20622;-66
2023/04/14 11:25:11;;;;;;;4.82;4.40;;;;;;;17.21;49.20;99501.00;5008815;28;20609;-65
2023/04/14 11:27:39;;;;;;;4.97;4.47;;;;;;;17.10;49.73;99501.50;5007342;28;20229;-66
2023/04/14 11:30:09;;;;;;;5.93;4.07;;;;;;;17.17;48.86;99502.06;5009895;28;20203;-64
2023/04/14 11:32:47;;;;;;;7.45;4.07;;;;;;;17.08;47.78;99504.16;5010080;28;20223;-61
2023/04/14 11:35:17;;;;;;;4.20;3.40;;;;;;;16.90;47.98;99490.25;5009698;28;20213;-63
2023/04/14 11:37:46;;;;;;;4.18;3.58;;;;;;;16.96;47.20;99489.13;5010181;28;20207;-63
2023/04/14 11:40:15;;;;;;;3.70;3.40;;;;;;;16.94;47.26;99496.16;5007322;28;20234;-62
2023/04/14 11:42:45;;;;;;;3.78;3.40;;;;;;;17.02;47.33;99496.66;5007528;28;20678;-63
2023/04/14 11:45:15;;;;;;;4.07;3.67;;;;;;;17.11;47.55;99493.59;5005955;28;20211;-64